sensor_id;sensor_type;location;lat;lon;timestamp;pressure;altitude;pressure_sealevel;temperature;humidity
55675;BME280;41562;44.330;23.802;2023-05-10T00:00:47;100838.91;;;9.80;100.00
55675;BME280;41562;44.330;23.802;2023-05-10T00:03:14;100842.38;;;9.54;100.00
55675;BME280;41562;44.330;23.802;2023-05-10T00:05:42;100833.25;;;9.50;100.00
55675;BME280;41562;44.330;23.802;2023-05-10T00:08:09;100836.00;;;9.82;100.00
55675;BME280;41562;44.330;23.802;2023-05-10T00:10:36;100831.81;;;9.64;100.00
55675;BME280;41562;44.330;23.802;2023-05-10T00:13:03;100823.69;;;9.54;100.00
55675;BME280;41562;44.330;23.802;2023-05-10T00:15:31;100829.09;;;9.37;100.00
55675;BME280;41562;44.330;23.802;2023-05-10T00:17:58;100827.72;;;9.56;100.00
55675;BME280;41562;44.330;23.802;2023-05-10T00:20:25;100827.34;;;9.69;100.00
55675;BME280;41562;44.330;23.802;2023-05-10T00:22:53;100824.03;;;9.62;100.00
55675;BME280;41562;44.330;23.802;2023-05-10T00:25:20;100822.81;;;9.70;100.00
55675;BME280;41562;44.330;23.802;2023-05-10T00:27:47;100825.28;;;9.55;100.00
55675;BME280;41562;44.330;23.802;2023-05-10T00:30:15;100827.03;;;9.44;100.00
55675;BME280;41562;44.330;23.802;2023-05-10T00:32:42;100823.19;;;9.57;100.00
55675;BME280;41562;44.330;23.802;2023-05-10T00:35:09;100815.31;;;9.45;100.00
55675;BME280;41562;44.330;23.802;2023-05-10T00:37:37;100819.91;;;9.50;100.00
55675;BME280;41562;44.330;23.802;2023-05-10T00:40:05;100820.28;;;9.58;100.00
55675;BME280;41562;44.330;23.802;2023-05-10T00:42:32;100821.19;;;9.69;100.00
55675;BME280;41562;44.330;23.802;2023-05-10T00:45:00;100819.06;;;9.71;100.00
55675;BME280;41562;44.330;23.802;2023-05-10T00:47:27;100817.09;;;9.61;100.00
55675;BME280;41562;44.330;23.802;2023-05-10T00:49:55;100819.34;;;9.48;100.00
55675;BME280;41562;44.330;23.802;2023-05-10T00:52:22;100819.28;;;9.64;100.00
55675;BME280;41562;44.330;23.802;2023-05-10T00:54:51;100827.34;;;9.69;100.00
55675;BME280;41562;44.330;23.802;2023-05-10T00:57:19;100817.66;;;9.63;100.00
55675;BME280;41562;44.330;23.802;2023-05-10T00:59:46;100816.44;;;9.76;100.00
55675;BME280;41562;44.330;23.802;2023-05-10T01:02:14;100813.16;;;9.69;100.00
55675;BME280;41562;44.330;23.802;2023-05-10T01:04:43;100817.03;;;9.78;100.00
55675;BME280;41562;44.330;23.802;2023-05-10T01:07:10;100817.06;;;9.83;100.00
55675;BME280;41562;44.330;23.802;2023-05-10T01:09:37;100813.53;;;9.78;100.00
55675;BME280;41562;44.330;23.802;2023-05-10T01:12:05;100809.50;;;9.75;100.00
55675;BME280;41562;44.330;23.802;2023-05-10T01:14:33;100808.44;;;9.76;100.00
55675;BME280;41562;44.330;23.802;2023-05-10T01:17:01;100807.28;;;9.67;100.00
55675;BME280;41562;44.330;23.802;2023-05-10T01:19:30;100803.09;;;9.76;100.00
55675;BME280;41562;44.330;23.802;2023-05-10T01:22:07;100798.53;;;9.72;100.00
55675;BME280;41562;44.330;23.802;2023-05-10T01:33:48;100798.81;;;9.75;100.00
55675;BME280;41562;44.330;23.802;2023-05-10T01:36:21;100792.06;;;9.67;100.00
55675;BME280;41562;44.330;23.802;2023-05-10T01:38:55;100788.34;;;9.95;100.00
55675;BME280;41562;44.330;23.802;2023-05-10T01:41:39;100788.13;;;9.75;100.00
55675;BME280;41562;44.330;23.802;2023-05-10T01:44:18;100785.81;;;9.84;100.00
55675;BME280;41562;44.330;23.802;2023-05-10T01:47:20;100781.97;;;9.75;100.00
55675;BME280;41562;44.330;23.802;2023-05-10T01:49:49;100783.41;;;9.82;100.00
55675;BME280;41562;44.330;23.802;2023-05-10T01:52:25;100783.63;;;9.81;100.00
55675;BME280;41562;44.330;23.802;2023-05-10T01:54:55;100775.91;;;9.79;100.00
55675;BME280;41562;44.330;23.802;2023-05-10T01:57:28;100777.13;;;9.66;100.00
55675;BME280;41562;44.330;23.802;2023-05-10T02:00:02;100774.31;;;9.56;100.00
55675;BME280;41562;44.330;23.802;2023-05-10T02:02:31;100776.75;;;9.58;100.00
55675;BME280;41562;44.330;23.802;2023-05-10T02:05:00;100772.91;;;9.49;100.00
55675;BME280;41562;44.330;23.802;2023-05-10T02:07:28;100775.59;;;9.27;100.00
55675;BME280;41562;44.330;23.802;2023-05-10T02:09:56;100770.78;;;9.51;100.00
55675;BME280;41562;44.330;23.802;2023-05-10T02:12:24;100768.84;;;9.41;100.00
55675;BME280;41562;44.330;23.802;2023-05-10T02:14:53;100767.50;;;9.44;100.00
55675;BME280;41562;44.330;23.802;2023-05-10T02:17:21;100766.09;;;9.14;100.00
55675;BME280;41562;44.330;23.802;2023-05-10T02:19:51;100764.41;;;9.52;100.00
55675;BME280;41562;44.330;23.802;2023-05-10T02:22:21;100767.03;;;9.47;100.00
55675;BME280;41562;44.330;23.802;2023-05-10T02:24:49;100762.13;;;9.39;100.00
55675;BME280;41562;44.330;23.802;2023-05-10T02:27:19;100770.13;;;9.39;100.00
55675;BME280;41562;44.330;23.802;2023-05-10T02:29:47;100766.34;;;9.35;100.00
55675;BME280;41562;44.330;23.802;2023-05-10T02:32:16;100764.22;;;9.37;100.00
55675;BME280;41562;44.330;23.802;2023-05-10T02:34:45;100768.69;;;9.53;100.00
55675;BME280;41562;44.330;23.802;2023-05-10T02:37:18;100768.75;;;9.36;100.00
55675;BME280;41562;44.330;23.802;2023-05-10T02:39:49;100758.78;;;9.48;100.00
55675;BME280;41562;44.330;23.802;2023-05-10T02:42:25;100763.41;;;9.36;100.00
55675;BME280;41562;44.330;23.802;2023-05-10T02:44:56;100753.34;;;9.43;100.00
55675;BME280;41562;44.330;23.802;2023-05-10T02:47:28;100752.81;;;9.41;100.00
55675;BME280;41562;44.330;23.802;2023-05-10T02:49:55;100754.53;;;9.52;100.00
55675;BME280;41562;44.330;23.802;2023-05-10T02:52:29;100761.13;;;9.45;100.00
55675;BME280;41562;44.330;23.802;2023-05-10T02:55:00;100767.75;;;9.42;100.00
55675;BME280;41562;44.330;23.802;2023-05-10T02:57:32;100763.94;;;9.33;100.00
55675;BME280;41562;44.330;23.802;2023-05-10T03:00:01;100758.97;;;9.42;100.00
55675;BME280;41562;44.330;23.802;2023-05-10T03:02:29;100765.34;;;9.41;100.00
55675;BME280;41562;44.330;23.802;2023-05-10T03:04:56;100764.06;;;9.21;100.00
55675;BME280;41562;44.330;23.802;2023-05-10T03:07:24;100762.06;;;9.12;100.00
55675;BME280;41562;44.330;23.802;2023-05-10T03:09:51;100759.41;;;9.34;100.00
55675;BME280;41562;44.330;23.802;2023-05-10T03:20:11;100764.47;;;10.95;100.00
55675;BME280;41562;44.330;23.802;2023-05-10T03:22:47;100768.16;;;13.08;91.77
55675;BME280;41562;44.330;23.802;2023-05-10T03:25:18;100756.47;;;12.58;91.99
55675;BME280;41562;44.330;23.802;2023-05-10T03:27:48;100758.78;;;12.90;90.24
55675;BME280;41562;44.330;23.802;2023-05-10T03:30:16;100765.22;;;12.99;90.84
55675;BME280;41562;44.330;23.802;2023-05-10T03:32:44;100768.97;;;13.08;90.79
55675;BME280;41562;44.330;23.802;2023-05-10T03:35:12;100772.56;;;12.68;92.89
55675;BME280;41562;44.330;23.802;2023-05-10T03:37:39;100770.53;;;13.09;88.94
55675;BME280;41562;44.330;23.802;2023-05-10T03:40:07;100781.34;;;12.94;88.75
55675;BME280;41562;44.330;23.802;2023-05-10T03:42:35;100778.91;;;13.13;88.09
55675;BME280;41562;44.330;23.802;2023-05-10T03:45:03;100774.06;;;13.15;87.37
55675;BME280;41562;44.330;23.802;2023-05-10T03:47:30;100769.91;;;11.82;91.20
55675;BME280;41562;44.330;23.802;2023-05-10T03:49:58;100767.41;;;11.60;98.00
55675;BME280;41562;44.330;23.802;2023-05-10T03:52:25;100767.50;;;12.16;97.00
55675;BME280;41562;44.330;23.802;2023-05-10T03:54:53;100772.84;;;12.36;90.54
55675;BME280;41562;44.330;23.802;2023-05-10T03:57:33;100774.06;;;10.80;100.00
55675;BME280;41562;44.330;23.802;2023-05-10T04:00:01;100769.59;;;10.54;100.00
55675;BME280;41562;44.330;23.802;2023-05-10T04:02:28;100767.78;;;10.23;100.00
55675;BME280;41562;44.330;23.802;2023-05-10T04:04:56;100765.69;;;10.30;100.00
55675;BME280;41562;44.330;23.802;2023-05-10T04:07:24;100766.25;;;10.05;100.00
55675;BME280;41562;44.330;23.802;2023-05-10T04:09:52;100764.28;;;9.95;100.00
55675;BME280;41562;44.330;23.802;2023-05-10T04:12:20;100772.81;;;9.92;100.00
55675;BME280;41562;44.330;23.802;2023-05-10T04:14:47;100780.13;;;9.75;100.00
55675;BME280;41562;44.330;23.802;2023-05-10T04:17:15;100777.56;;;9.85;100.00
55675;BME280;41562;44.330;23.802;2023-05-10T04:19:43;100772.13;;;10.07;100.00
55675;BME280;41562;44.330;23.802;2023-05-10T04:22:10;100779.53;;;10.22;100.00
55675;BME280;41562;44.330;23.802;2023-05-10T04:24:38;100778.97;;;11.04;100.00
55675;BME280;41562;44.330;23.802;2023-05-10T04:27:05;100780.56;;;10.53;100.00
55675;BME280;41562;44.330;23.802;2023-05-10T04:29:33;100776.91;;;10.32;100.00
55675;BME280;41562;44.330;23.802;2023-05-10T04:32:01;100771.88;;;10.35;100.00
55675;BME280;41562;44.330;23.802;2023-05-10T04:34:29;100773.63;;;10.20;100.00
55675;BME280;41562;44.330;23.802;2023-05-10T04:36:56;100770.53;;;10.38;100.00
55675;BME280;41562;44.330;23.802;2023-05-10T04:39:23;100772.78;;;10.51;100.00
55675;BME280;41562;44.330;23.802;2023-05-10T04:41:50;100774.81;;;10.34;100.00
55675;BME280;41562;44.330;23.802;2023-05-10T04:44:17;100771.06;;;10.35;100.00
55675;BME280;41562;44.330;23.802;2023-05-10T04:46:44;100773.28;;;10.43;100.00
55675;BME280;41562;44.330;23.802;2023-05-10T04:49:12;100772.38;;;10.32;100.00
55675;BME280;41562;44.330;23.802;2023-05-10T04:51:39;100766.44;;;10.25;100.00
55675;BME280;41562;44.330;23.802;2023-05-10T04:54:06;100766.41;;;10.20;100.00
55675;BME280;41562;44.330;23.802;2023-05-10T04:56:33;100765.72;;;10.35;100.00
55675;BME280;41562;44.330;23.802;2023-05-10T04:59:00;100768.16;;;10.36;100.00
55675;BME280;41562;44.330;23.802;2023-05-10T05:01:28;100761.91;;;10.26;100.00
55675;BME280;41562;44.330;23.802;2023-05-10T05:03:55;100761.38;;;10.24;100.00
55675;BME280;41562;44.330;23.802;2023-05-10T05:06:23;100766.53;;;10.35;100.00
55675;BME280;41562;44.330;23.802;2023-05-10T05:08:51;100761.41;;;10.29;100.00
55675;BME280;41562;44.330;23.802;2023-05-10T05:11:19;100753.41;;;10.34;100.00
55675;BME280;41562;44.330;23.802;2023-05-10T05:13:47;100759.94;;;10.48;100.00
55675;BME280;41562;44.330;23.802;2023-05-10T05:16:14;100753.94;;;10.73;100.00
55675;BME280;41562;44.330;23.802;2023-05-10T05:18:41;100769.50;;;10.44;100.00
55675;BME280;41562;44.330;23.802;2023-05-10T05:21:19;100757.78;;;10.50;100.00
55675;BME280;41562;44.330;23.802;2023-05-10T05:23:47;100756.69;;;10.41;100.00
55675;BME280;41562;44.330;23.802;2023-05-10T05:26:14;100760.25;;;10.57;100.00
55675;BME280;41562;44.330;23.802;2023-05-10T05:28:41;100767.31;;;10.73;100.00
55675;BME280;41562;44.330;23.802;2023-05-10T05:31:08;100760.03;;;10.63;100.00
55675;BME280;41562;44.330;23.802;2023-05-10T05:33:36;100755.47;;;10.64;100.00
55675;BME280;41562;44.330;23.802;2023-05-10T05:36:04;100761.41;;;10.71;100.00
55675;BME280;41562;44.330;23.802;2023-05-10T05:38:32;100758.56;;;10.87;100.00
55675;BME280;41562;44.330;23.802;2023-05-10T05:40:59;100761.06;;;11.04;100.00
55675;BME280;41562;44.330;23.802;2023-05-10T05:43:27;100760.50;;;11.02;99.87
55675;BME280;41562;44.330;23.802;2023-05-10T05:45:54;100750.69;;;11.18;99.54
55675;BME280;41562;44.330;23.802;2023-05-10T05:48:22;100760.00;;;11.05;99.42
55675;BME280;41562;44.330;23.802;2023-05-10T05:50:49;100761.88;;;11.10;98.92
55675;BME280;41562;44.330;23.802;2023-05-10T05:53:17;100769.38;;;11.13;98.89
55675;BME280;41562;44.330;23.802;2023-05-10T05:55:58;100771.06;;;11.29;98.22
55675;BME280;41562;44.330;23.802;2023-05-10T05:58:25;100764.97;;;11.49;97.82
55675;BME280;41562;44.330;23.802;2023-05-10T06:00:53;100762.81;;;11.51;98.21
55675;BME280;41562;44.330;23.802;2023-05-10T06:03:21;100770.09;;;11.65;96.28
55675;BME280;41562;44.330;23.802;2023-05-10T06:05:49;100775.19;;;11.62;96.13
55675;BME280;41562;44.330;23.802;2023-05-10T06:08:16;100766.59;;;11.70;95.57
55675;BME280;41562;44.330;23.802;2023-05-10T06:10:43;100770.41;;;11.79;96.15
55675;BME280;41562;44.330;23.802;2023-05-10T06:13:11;100778.75;;;11.88;94.66
55675;BME280;41562;44.330;23.802;2023-05-10T06:15:39;100778.72;;;11.83;93.74
55675;BME280;41562;44.330;23.802;2023-05-10T06:18:06;100783.59;;;12.06;94.13
55675;BME280;41562;44.330;23.802;2023-05-10T06:20:34;100781.19;;;12.20;93.96
55675;BME280;41562;44.330;23.802;2023-05-10T06:23:01;100777.69;;;12.29;93.94
55675;BME280;41562;44.330;23.802;2023-05-10T06:25:29;100785.16;;;12.53;92.44
55675;BME280;41562;44.330;23.802;2023-05-10T06:27:56;100787.75;;;13.03;90.88
55675;BME280;41562;44.330;23.802;2023-05-10T06:30:24;100786.66;;;13.04;89.12
55675;BME280;41562;44.330;23.802;2023-05-10T06:32:52;100787.31;;;12.76;89.46
55675;BME280;41562;44.330;23.802;2023-05-10T06:35:19;100791.78;;;13.01;88.05
55675;BME280;41562;44.330;23.802;2023-05-10T06:37:47;100792.66;;;12.81;87.38
55675;BME280;41562;44.330;23.802;2023-05-10T06:40:14;100793.16;;;12.93;86.65
55675;BME280;41562;44.330;23.802;2023-05-10T06:42:42;100791.53;;;13.02;87.10
55675;BME280;41562;44.330;23.802;2023-05-10T06:45:10;100788.03;;;13.66;85.22
55675;BME280;41562;44.330;23.802;2023-05-10T06:47:37;100787.81;;;14.01;83.87
55675;BME280;41562;44.330;23.802;2023-05-10T06:50:07;100796.88;;;14.16;82.38
55675;BME280;41562;44.330;23.802;2023-05-10T06:52:34;100785.66;;;14.03;85.66
55675;BME280;41562;44.330;23.802;2023-05-10T06:55:02;100792.63;;;13.60;82.55
55675;BME280;41562;44.330;23.802;2023-05-10T06:57:30;100789.25;;;13.40;84.57
55675;BME280;41562;44.330;23.802;2023-05-10T06:59:59;100795.69;;;13.44;81.65
55675;BME280;41562;44.330;23.802;2023-05-10T07:02:26;100785.19;;;13.91;80.89
55675;BME280;41562;44.330;23.802;2023-05-10T07:04:54;100786.34;;;14.19;78.65
55675;BME280;41562;44.330;23.802;2023-05-10T07:07:22;100783.13;;;14.51;78.62
55675;BME280;41562;44.330;23.802;2023-05-10T07:09:49;100784.25;;;14.45;78.92
55675;BME280;41562;44.330;23.802;2023-05-10T07:12:17;100789.00;;;14.58;77.64
55675;BME280;41562;44.330;23.802;2023-05-10T07:14:44;100794.19;;;14.78;77.33
55675;BME280;41562;44.330;23.802;2023-05-10T07:17:12;100782.38;;;14.98;75.42
55675;BME280;41562;44.330;23.802;2023-05-10T07:19:39;100795.88;;;14.93;76.56
55675;BME280;41562;44.330;23.802;2023-05-10T07:22:07;100798.41;;;14.84;76.65
55675;BME280;41562;44.330;23.802;2023-05-10T07:24:35;100801.78;;;14.71;75.23
55675;BME280;41562;44.330;23.802;2023-05-10T07:27:02;100797.94;;;14.77;73.04
55675;BME280;41562;44.330;23.802;2023-05-10T07:29:30;100797.13;;;14.48;73.82
55675;BME280;41562;44.330;23.802;2023-05-10T07:31:58;100798.53;;;14.45;75.02
55675;BME280;41562;44.330;23.802;2023-05-10T07:34:25;100795.38;;;14.33;75.71
55675;BME280;41562;44.330;23.802;2023-05-10T07:36:53;100798.69;;;14.59;74.18
55675;BME280;41562;44.330;23.802;2023-05-10T07:39:20;100806.13;;;14.38;73.89
55675;BME280;41562;44.330;23.802;2023-05-10T07:41:55;100796.38;;;14.47;74.27
55675;BME280;41562;44.330;23.802;2023-05-10T07:44:23;100793.22;;;14.30;74.17
55675;BME280;41562;44.330;23.802;2023-05-10T07:46:50;100806.28;;;14.52;70.98
55675;BME280;41562;44.330;23.802;2023-05-10T07:49:18;100810.09;;;14.99;71.69
55675;BME280;41562;44.330;23.802;2023-05-10T07:51:45;100799.72;;;15.58;71.29
55675;BME280;41562;44.330;23.802;2023-05-10T07:54:13;100811.69;;;15.47;67.72
55675;BME280;41562;44.330;23.802;2023-05-10T07:56:41;100798.69;;;15.07;67.56
55675;BME280;41562;44.330;23.802;2023-05-10T07:59:08;100796.34;;;15.00;67.74
55675;BME280;41562;44.330;23.802;2023-05-10T08:01:38;100813.66;;;15.18;67.70
55675;BME280;41562;44.330;23.802;2023-05-10T08:04:06;100801.19;;;15.69;69.71
55675;BME280;41562;44.330;23.802;2023-05-10T08:06:33;100811.50;;;15.62;66.08
55675;BME280;41562;44.330;23.802;2023-05-10T08:09:00;100808.50;;;15.21;67.81
55675;BME280;41562;44.330;23.802;2023-05-10T08:11:28;100803.97;;;15.41;65.37
55675;BME280;41562;44.330;23.802;2023-05-10T08:13:56;100806.63;;;15.22;64.92
55675;BME280;41562;44.330;23.802;2023-05-10T08:16:23;100804.13;;;15.25;64.74
55675;BME280;41562;44.330;23.802;2023-05-10T08:18:50;100816.63;;;15.64;62.81
55675;BME280;41562;44.330;23.802;2023-05-10T08:21:19;100811.75;;;15.85;62.23
55675;BME280;41562;44.330;23.802;2023-05-10T08:23:47;100802.22;;;15.74;62.31
55675;BME280;41562;44.330;23.802;2023-05-10T08:26:14;100817.16;;;15.85;63.72
55675;BME280;41562;44.330;23.802;2023-05-10T08:28:41;100799.94;;;15.81;62.29
55675;BME280;41562;44.330;23.802;2023-05-10T08:31:09;100798.69;;;16.11;61.43
55675;BME280;41562;44.330;23.802;2023-05-10T08:33:36;100788.50;;;15.70;64.68
55675;BME280;41562;44.330;23.802;2023-05-10T08:36:04;100800.72;;;15.20;64.76
55675;BME280;41562;44.330;23.802;2023-05-10T08:38:31;100798.78;;;15.87;66.33
55675;BME280;41562;44.330;23.802;2023-05-10T08:41:01;100796.44;;;15.99;64.26
55675;BME280;41562;44.330;23.802;2023-05-10T08:43:29;100801.47;;;15.68;63.68
55675;BME280;41562;44.330;23.802;2023-05-10T08:46:00;100817.28;;;15.75;64.55
55675;BME280;41562;44.330;23.802;2023-05-10T08:48:29;100804.38;;;15.72;63.67
55675;BME280;41562;44.330;23.802;2023-05-10T08:50:58;100798.44;;;15.51;66.83
55675;BME280;41562;44.330;23.802;2023-05-10T08:53:28;100801.63;;;15.34;66.15
55675;BME280;41562;44.330;23.802;2023-05-10T08:55:57;100792.91;;;14.95;66.01
55675;BME280;41562;44.330;23.802;2023-05-10T08:58:25;100794.63;;;15.33;62.40
55675;BME280;41562;44.330;23.802;2023-05-10T09:00:52;100791.09;;;15.94;63.29
55675;BME280;41562;44.330;23.802;2023-05-10T09:03:20;100792.97;;;15.80;61.83
55675;BME280;41562;44.330;23.802;2023-05-10T09:05:48;100798.13;;;15.95;61.96
55675;BME280;41562;44.330;23.802;2023-05-10T09:08:17;100799.13;;;16.18;62.42
55675;BME280;41562;44.330;23.802;2023-05-10T09:10:44;100795.41;;;15.57;61.66
55675;BME280;41562;44.330;23.802;2023-05-10T09:13:14;100784.47;;;16.05;63.79
55675;BME280;41562;44.330;23.802;2023-05-10T09:15:43;100785.78;;;16.07;65.09
55675;BME280;41562;44.330;23.802;2023-05-10T09:18:12;100797.88;;;16.10;62.39
55675;BME280;41562;44.330;23.802;2023-05-10T09:20:40;100795.41;;;15.95;62.39
55675;BME280;41562;44.330;23.802;2023-05-10T09:23:07;100784.22;;;16.20;64.63
55675;BME280;41562;44.330;23.802;2023-05-10T09:25:35;100787.81;;;16.16;61.13
55675;BME280;41562;44.330;23.802;2023-05-10T09:28:06;100786.72;;;16.49;62.38
55675;BME280;41562;44.330;23.802;2023-05-10T09:30:34;100771.59;;;16.67;58.32
55675;BME280;41562;44.330;23.802;2023-05-10T09:33:02;100787.31;;;16.92;58.45
55675;BME280;41562;44.330;23.802;2023-05-10T09:35:32;100780.50;;;16.95;59.00
55675;BME280;41562;44.330;23.802;2023-05-10T09:38:02;100788.09;;;16.79;58.70
55675;BME280;41562;44.330;23.802;2023-05-10T09:40:31;100787.09;;;16.75;55.68
55675;BME280;41562;44.330;23.802;2023-05-10T09:43:02;100785.50;;;16.87;59.16
55675;BME280;41562;44.330;23.802;2023-05-10T09:45:31;100779.03;;;16.56;56.97
55675;BME280;41562;44.330;23.802;2023-05-10T09:47:59;100769.88;;;16.71;58.18
55675;BME280;41562;44.330;23.802;2023-05-10T09:50:28;100764.41;;;16.43;58.96
55675;BME280;41562;44.330;23.802;2023-05-10T09:52:57;100764.91;;;16.13;58.76
55675;BME280;41562;44.330;23.802;2023-05-10T09:55:39;100758.88;;;16.67;57.39
55675;BME280;41562;44.330;23.802;2023-05-10T09:58:07;100758.38;;;16.79;61.31
55675;BME280;41562;44.330;23.802;2023-05-10T10:00:40;100755.53;;;16.11;57.22
55675;BME280;41562;44.330;23.802;2023-05-10T10:03:19;100755.59;;;16.38;57.25
55675;BME280;41562;44.330;23.802;2023-05-10T10:06:07;100753.88;;;15.96;57.93
55675;BME280;41562;44.330;23.802;2023-05-10T10:09:08;100745.00;;;16.41;56.99
55675;BME280;41562;44.330;23.802;2023-05-10T10:11:55;100754.28;;;16.95;56.15
55675;BME280;41562;44.330;23.802;2023-05-10T10:14:42;100748.47;;;16.61;55.74
55675;BME280;41562;44.330;23.802;2023-05-10T10:17:30;100741.66;;;16.63;53.58
55675;BME280;41562;44.330;23.802;2023-05-10T10:20:19;100744.28;;;16.68;53.93
55675;BME280;41562;44.330;23.802;2023-05-10T10:22:48;100743.66;;;16.71;53.90
55675;BME280;41562;44.330;23.802;2023-05-10T10:25:17;100757.91;;;16.31;55.40
55675;BME280;41562;44.330;23.802;2023-05-10T10:30:37;100749.47;;;16.65;54.93
55675;BME280;41562;44.330;23.802;2023-05-10T10:33:30;100741.50;;;16.87;53.02
55675;BME280;41562;44.330;23.802;2023-05-10T10:36:02;100744.88;;;17.06;53.83
55675;BME280;41562;44.330;23.802;2023-05-10T10:38:59;100734.34;;;16.64;52.64
55675;BME280;41562;44.330;23.802;2023-05-10T10:41:39;100732.03;;;16.43;52.66
55675;BME280;41562;44.330;23.802;2023-05-10T10:49:51;100743.72;;;16.53;52.15
55675;BME280;41562;44.330;23.802;2023-05-10T10:52:26;100724.66;;;16.90;52.97
55675;BME280;41562;44.330;23.802;2023-05-10T10:57:29;100720.88;;;16.77;52.20
55675;BME280;41562;44.330;23.802;2023-05-10T11:02:56;100720.28;;;16.67;52.47
55675;BME280;41562;44.330;23.802;2023-05-10T11:05:38;100705.53;;;17.63;51.64
55675;BME280;41562;44.330;23.802;2023-05-10T11:08:23;100722.44;;;17.91;50.52
55675;BME280;41562;44.330;23.802;2023-05-10T11:15:55;100704.06;;;18.02;48.34
55675;BME280;41562;44.330;23.802;2023-05-10T11:18:27;100702.75;;;17.77;49.35
55675;BME280;41562;44.330;23.802;2023-05-10T11:20:59;100703.53;;;17.69;49.87
55675;BME280;41562;44.330;23.802;2023-05-10T11:26:11;100699.38;;;17.72;48.76
55675;BME280;41562;44.330;23.802;2023-05-10T11:28:46;100694.47;;;17.38;47.53
55675;BME280;41562;44.330;23.802;2023-05-10T11:31:17;100685.06;;;17.93;49.31
55675;BME280;41562;44.330;23.802;2023-05-10T11:33:45;100696.66;;;16.86;49.48
55675;BME280;41562;44.330;23.802;2023-05-10T11:38:46;100690.75;;;16.70;49.46
55675;BME280;41562;44.330;23.802;2023-05-10T11:41:16;100685.34;;;16.70;49.29
55675;BME280;41562;44.330;23.802;2023-05-10T11:43:46;100686.66;;;16.86;50.75
55675;BME280;41562;44.330;23.802;2023-05-10T11:46:13;100684.63;;;17.19;50.00
55675;BME280;41562;44.330;23.802;2023-05-10T11:48:41;100673.84;;;16.92;48.97
55675;BME280;41562;44.330;23.802;2023-05-10T11:51:10;100672.31;;;17.13;48.99
55675;BME280;41562;44.330;23.802;2023-05-10T11:53:38;100675.22;;;17.03;49.01
55675;BME280;41562;44.330;23.802;2023-05-10T11:56:09;100665.56;;;16.75;50.08
55675;BME280;41562;44.330;23.802;2023-05-10T11:58:38;100663.56;;;16.94;50.47
55675;BME280;41562;44.330;23.802;2023-05-10T12:01:07;100672.06;;;17.37;51.63
55675;BME280;41562;44.330;23.802;2023-05-10T12:03:37;100667.91;;;17.40;51.13
55675;BME280;41562;44.330;23.802;2023-05-10T12:06:06;100662.75;;;17.88;48.64
55675;BME280;41562;44.330;23.802;2023-05-10T12:08:34;100644.78;;;17.92;48.54
55675;BME280;41562;44.330;23.802;2023-05-10T12:11:08;100651.78;;;18.24;48.86
55675;BME280;41562;44.330;23.802;2023-05-10T12:13:40;100657.00;;;17.45;46.39
55675;BME280;41562;44.330;23.802;2023-05-10T12:18:48;100654.00;;;17.10;47.72
55675;BME280;41562;44.330;23.802;2023-05-10T12:21:15;100650.59;;;17.41;47.68
55675;BME280;41562;44.330;23.802;2023-05-10T12:23:45;100649.50;;;17.42;49.16
55675;BME280;41562;44.330;23.802;2023-05-10T12:26:13;100649.13;;;16.85;49.01
55675;BME280;41562;44.330;23.802;2023-05-10T12:28:41;100645.22;;;17.05;49.03
55675;BME280;41562;44.330;23.802;2023-05-10T12:31:08;100636.59;;;17.39;48.85
55675;BME280;41562;44.330;23.802;2023-05-10T12:33:45;100640.50;;;17.33;48.45
55675;BME280;41562;44.330;23.802;2023-05-10T12:36:14;100636.09;;;17.37;48.14
55675;BME280;41562;44.330;23.802;2023-05-10T12:38:43;100631.91;;;17.53;51.39
55675;BME280;41562;44.330;23.802;2023-05-10T12:41:16;100623.94;;;17.48;48.05
55675;BME280;41562;44.330;23.802;2023-05-10T12:43:44;100627.66;;;17.74;47.79
55675;BME280;41562;44.330;23.802;2023-05-10T12:46:14;100639.34;;;17.47;47.98
55675;BME280;41562;44.330;23.802;2023-05-10T12:48:43;100626.84;;;17.15;53.53
55675;BME280;41562;44.330;23.802;2023-05-10T12:51:11;100628.22;;;16.91;48.83
55675;BME280;41562;44.330;23.802;2023-05-10T12:53:39;100626.03;;;16.93;48.72
55675;BME280;41562;44.330;23.802;2023-05-10T12:56:10;100620.03;;;16.82;49.37
55675;BME280;41562;44.330;23.802;2023-05-10T12:58:38;100621.31;;;17.20;51.00
55675;BME280;41562;44.330;23.802;2023-05-10T13:01:05;100608.06;;;17.10;49.39
55675;BME280;41562;44.330;23.802;2023-05-10T13:03:33;100601.41;;;16.94;49.92
55675;BME280;41562;44.330;23.802;2023-05-10T13:06:08;100615.25;;;17.15;49.54
55675;BME280;41562;44.330;23.802;2023-05-10T13:08:55;100608.31;;;17.22;49.99
55675;BME280;41562;44.330;23.802;2023-05-10T13:11:32;100601.13;;;17.18;49.88
55675;BME280;41562;44.330;23.802;2023-05-10T13:13:59;100595.72;;;16.82;49.76
55675;BME280;41562;44.330;23.802;2023-05-10T13:16:26;100595.66;;;16.73;48.96
55675;BME280;41562;44.330;23.802;2023-05-10T13:18:54;100586.44;;;17.33;52.11
55675;BME280;41562;44.330;23.802;2023-05-10T13:21:21;100585.94;;;17.08;48.03
55675;BME280;41562;44.330;23.802;2023-05-10T13:23:49;100585.75;;;17.05;49.32
55675;BME280;41562;44.330;23.802;2023-05-10T13:26:16;100585.69;;;16.96;49.33
55675;BME280;41562;44.330;23.802;2023-05-10T13:28:43;100591.34;;;17.08;51.14
55675;BME280;41562;44.330;23.802;2023-05-10T13:31:11;100584.41;;;17.16;49.65
55675;BME280;41562;44.330;23.802;2023-05-10T13:33:38;100578.16;;;17.07;48.73